createdAt,value
2023-03-23T15:57:55.888Z,1.70
2023-03-23T16:00:24.663Z,1.65
2023-03-23T16:02:55.981Z,2.13
2023-03-23T16:05:22.501Z,1.83
2023-03-23T16:07:50.174Z,1.33
2023-03-23T16:10:19.601Z,2.03
2023-03-23T16:12:46.442Z,2.08
2023-03-23T16:15:13.915Z,1.77
2023-03-23T16:17:40.381Z,1.52
2023-03-23T16:20:19.537Z,1.70
2023-03-23T16:22:46.983Z,2.17
2023-03-23T16:25:14.434Z,1.70
2023-03-23T16:27:42.117Z,2.08
2023-03-23T16:30:22.880Z,2.45
2023-03-23T16:32:49.417Z,1.77
2023-03-23T16:35:16.269Z,1.60
2023-03-23T16:38:08.112Z,1.75
2023-03-23T16:40:38.508Z,2.00
2023-03-23T16:43:09.175Z,2.10
2023-03-23T16:45:37.639Z,1.75
2023-03-23T16:48:05.291Z,1.65
2023-03-23T16:50:32.310Z,1.90
2023-03-23T16:52:59.047Z,1.85
2023-03-23T16:55:27.087Z,1.80
2023-03-23T16:58:05.366Z,1.90
2023-03-23T17:00:41.372Z,1.95
2023-03-23T17:03:08.020Z,2.60
2023-03-23T17:05:36.835Z,2.00
2023-03-23T17:08:04.217Z,1.70
2023-03-23T17:10:31.372Z,1.92
2023-03-23T17:12:58.141Z,1.70
2023-03-23T17:15:25.622Z,1.52
2023-03-23T17:17:52.662Z,1.60
2023-03-23T17:20:19.185Z,2.13
2023-03-23T17:22:45.581Z,3.13
2023-03-23T17:25:12.065Z,1.83
2023-03-23T17:27:39.172Z,2.67
2023-03-23T17:30:07.489Z,2.20
2023-03-23T17:32:34.180Z,2.25
2023-03-23T17:35:01.601Z,1.85
2023-03-23T17:37:28.114Z,1.95
2023-03-23T17:39:54.521Z,1.70
2023-03-23T17:42:20.905Z,2.83
2023-03-23T17:44:47.304Z,2.28
2023-03-23T17:47:13.756Z,2.20
2023-03-23T17:49:40.286Z,2.55
2023-03-23T17:52:06.686Z,2.30
2023-03-23T17:54:33.141Z,2.50
2023-03-23T17:57:00.956Z,2.25
2023-03-23T17:59:29.125Z,2.63
2023-03-23T18:01:56.052Z,1.85
2023-03-23T18:04:22.575Z,2.33
2023-03-23T18:06:49.352Z,2.38
2023-03-23T18:09:15.772Z,2.97
2023-03-23T18:11:42.150Z,2.90
2023-03-23T18:14:08.583Z,4.78
2023-03-23T18:16:35.014Z,3.80
2023-03-23T18:19:01.452Z,3.65
2023-03-23T18:21:27.835Z,3.10
2023-03-23T18:23:59.495Z,3.80
2023-03-23T18:26:27.934Z,3.03
2023-03-23T18:28:54.592Z,3.17
2023-03-23T18:31:22.013Z,3.58
2023-03-23T18:33:50.176Z,3.88
2023-03-23T18:36:20.510Z,3.50
2023-03-23T18:38:47.681Z,4.17
2023-03-23T18:41:14.904Z,3.35
2023-03-23T18:43:41.563Z,3.40
2023-03-23T18:46:08.217Z,3.50
2023-03-23T18:48:35.786Z,3.00
2023-03-23T18:51:02.970Z,3.25
2023-03-23T18:53:29.464Z,3.25
2023-03-23T18:56:08.616Z,3.03
2023-03-23T18:58:35.494Z,2.80
2023-03-23T19:01:04.198Z,3.00
2023-03-23T19:03:31.028Z,3.60
2023-03-23T19:05:59.836Z,2.83
2023-03-23T19:08:27.853Z,3.80
2023-03-23T19:10:59.992Z,3.58
2023-03-23T19:13:27.828Z,3.65
2023-03-23T19:15:54.247Z,3.28
2023-03-23T19:18:20.748Z,4.35
2023-03-23T19:21:12.401Z,3.47
2023-03-23T19:23:35.512Z,4.18
2023-03-23T19:26:01.911Z,3.70
2023-03-23T19:29:00.586Z,3.95
2023-03-23T19:31:16.793Z,3.67
2023-03-23T19:33:43.597Z,3.58
2023-03-23T19:36:12.990Z,3.58
2023-03-23T19:38:40.697Z,3.33
2023-03-23T19:41:07.630Z,3.10
2023-03-23T19:43:34.400Z,3.28
2023-03-23T19:46:00.891Z,3.38
2023-03-23T19:48:27.330Z,3.45
2023-03-23T19:50:55.776Z,3.90
2023-03-23T19:53:23.106Z,3.63
2023-03-23T19:55:50.512Z,3.95
2023-03-23T19:58:17.190Z,3.53
2023-03-23T20:00:44.531Z,3.70
2023-03-23T20:03:11.351Z,4.47
2023-03-23T20:05:38.047Z,4.35
2023-03-23T20:08:04.912Z,3.42
2023-03-23T20:10:34.638Z,3.70
2023-03-23T20:13:02.231Z,3.47
2023-03-23T20:15:30.701Z,3.63
2023-03-23T20:17:58.289Z,3.55
2023-03-23T20:20:25.688Z,3.53
2023-03-23T20:22:54.401Z,3.90
2023-03-23T20:25:22.435Z,3.17
2023-03-23T20:27:48.860Z,4.65
2023-03-23T20:30:15.498Z,3.78
2023-03-23T20:32:41.974Z,3.70
2023-03-23T20:35:10.653Z,4.28
2023-03-23T20:37:38.923Z,4.38
2023-03-23T20:40:11.386Z,4.93
2023-03-23T20:42:39.060Z,4.53
2023-03-23T20:45:06.649Z,4.65
2023-03-23T20:47:33.205Z,4.72
2023-03-23T20:50:00.140Z,4.88
2023-03-23T20:52:26.595Z,4.57
2023-03-23T20:54:54.880Z,4.88
2023-03-23T20:57:22.175Z,4.00
2023-03-23T20:59:50.792Z,4.60
2023-03-23T21:02:19.152Z,4.57
2023-03-23T21:04:46.475Z,5.25
2023-03-23T21:07:13.437Z,4.55
2023-03-23T21:09:41.130Z,5.25
2023-03-23T21:12:09.421Z,5.30
2023-03-23T21:14:38.362Z,4.25
2023-03-23T21:17:06.468Z,4.18
2023-03-23T21:19:33.787Z,4.57
2023-03-23T21:22:00.234Z,4.80
2023-03-23T21:24:28.905Z,4.03
2023-03-23T21:26:58.557Z,4.05
2023-03-23T21:29:25.115Z,4.05
2023-03-23T21:32:00.926Z,4.05
2023-03-23T21:34:34.348Z,3.83
2023-03-23T21:37:00.766Z,4.50
2023-03-23T21:39:28.062Z,5.05
2023-03-23T21:41:54.532Z,4.22
2023-03-23T21:44:20.955Z,4.13
2023-03-23T21:46:47.433Z,4.25
2023-03-23T21:49:14.313Z,4.43
2023-03-23T21:51:41.930Z,4.57
2023-03-23T21:54:09.933Z,4.35
2023-03-23T21:56:36.810Z,5.15
2023-03-23T21:59:04.593Z,4.88
2023-03-23T22:01:31.315Z,4.35
2023-03-23T22:03:58.138Z,3.75
2023-03-23T22:06:28.200Z,4.45
2023-03-23T22:08:55.060Z,3.63
2023-03-23T22:11:24.408Z,4.65
2023-03-23T22:13:52.628Z,4.00
2023-03-23T22:16:20.618Z,4.80
2023-03-23T22:18:48.500Z,4.90
2023-03-23T22:21:16.683Z,4.70
2023-03-23T22:23:44.326Z,4.68
2023-03-23T22:26:12.138Z,5.00
2023-03-23T22:28:39.270Z,4.90
2023-03-23T22:31:08.841Z,5.28
2023-03-23T22:33:36.822Z,4.82
2023-03-23T22:36:06.198Z,4.85
2023-03-23T22:38:34.258Z,5.32
2023-03-23T22:41:04.634Z,4.85
2023-03-23T22:43:31.068Z,4.97
2023-03-23T22:45:57.480Z,5.82
2023-03-23T22:48:25.554Z,5.32
2023-03-23T22:50:52.674Z,5.38
2023-03-23T22:53:19.493Z,5.38
2023-03-23T22:55:51.656Z,5.10
2023-03-23T22:58:18.463Z,5.28
2023-03-23T23:00:50.930Z,5.10
2023-03-23T23:03:17.479Z,5.00
2023-03-23T23:05:50.277Z,4.90
2023-03-23T23:08:17.995Z,4.95
2023-03-23T23:10:47.410Z,4.90
2023-03-23T23:13:14.440Z,4.82
2023-03-23T23:15:44.372Z,5.28
2023-03-23T23:18:11.001Z,5.55
2023-03-23T23:20:37.589Z,4.80
2023-03-23T23:23:05.076Z,4.45
2023-03-23T23:25:32.415Z,4.10
2023-03-23T23:28:01.335Z,4.35
2023-03-23T23:30:28.910Z,4.00
2023-03-23T23:32:56.568Z,3.47
2023-03-23T23:35:23.490Z,4.05
2023-03-23T23:37:49.948Z,3.95
2023-03-23T23:40:17.542Z,3.58
2023-03-23T23:42:46.054Z,3.85
2023-03-23T23:45:13.130Z,3.95
2023-03-23T23:47:40.458Z,3.83
2023-03-23T23:50:08.560Z,4.25
2023-03-23T23:52:36.489Z,4.05
2023-03-23T23:55:05.283Z,3.90
2023-03-23T23:57:31.677Z,3.53
2023-03-23T23:59:58.129Z,3.47
